createdAt,value
2019-03-20T00:00:09.394Z,3.83
2019-03-20T00:02:37.777Z,3.90
2019-03-20T00:05:06.969Z,4.33
2019-03-20T00:07:35.254Z,3.63
2019-03-20T00:10:03.617Z,3.13
2019-03-20T00:12:31.868Z,3.97
2019-03-20T00:15:00.343Z,3.80
2019-03-20T00:17:28.677Z,3.37
2019-03-20T00:19:56.988Z,4.37
2019-03-20T00:22:25.248Z,3.30
2019-03-20T00:24:53.549Z,4.43
2019-03-20T00:27:21.812Z,4.30
2019-03-20T00:29:50.104Z,3.70
2019-03-20T00:32:18.423Z,4.00
2019-03-20T00:34:46.711Z,4.10
2019-03-20T00:37:15.008Z,4.07
2019-03-20T00:39:43.346Z,3.17
2019-03-20T00:42:11.607Z,3.57
2019-03-20T00:44:39.957Z,3.70
2019-03-20T00:47:08.246Z,3.50
2019-03-20T00:49:36.539Z,4.23
2019-03-20T00:52:04.794Z,4.17
2019-03-20T00:54:33.106Z,4.63
2019-03-20T00:57:01.395Z,4.17
2019-03-20T00:59:29.686Z,3.93
2019-03-20T01:01:57.966Z,4.27
2019-03-20T01:04:26.231Z,4.43
2019-03-20T01:06:54.577Z,4.30
2019-03-20T01:09:22.834Z,4.33
2019-03-20T01:11:51.133Z,3.47
2019-03-20T01:14:19.436Z,3.80
2019-03-20T01:16:47.788Z,4.13
2019-03-20T01:19:16.108Z,4.17
2019-03-20T01:21:44.436Z,4.27
2019-03-20T01:24:12.843Z,3.90
2019-03-20T01:26:41.132Z,3.63
2019-03-20T01:29:09.386Z,4.00
2019-03-20T01:31:37.685Z,3.07
2019-03-20T01:34:05.936Z,3.13
2019-03-20T01:36:34.236Z,3.23
2019-03-20T01:39:02.564Z,4.10
2019-03-20T01:41:37.900Z,3.70
2019-03-20T01:44:00.851Z,3.83
2019-03-20T01:46:29.207Z,4.00
2019-03-20T01:48:57.504Z,4.03
2019-03-20T01:51:25.782Z,3.93
2019-03-20T01:53:54.047Z,4.73
2019-03-20T01:56:22.321Z,4.37
2019-03-20T01:58:50.609Z,4.80
2019-03-20T02:01:18.951Z,4.90
2019-03-20T02:03:47.289Z,4.93
2019-03-20T02:06:15.606Z,4.90
2019-03-20T02:08:43.997Z,4.63
2019-03-20T02:11:12.326Z,5.70
2019-03-20T02:13:40.627Z,5.30
2019-03-20T02:16:08.897Z,4.83
2019-03-20T02:18:37.218Z,4.40
2019-03-20T02:21:05.482Z,4.23
2019-03-20T02:23:33.746Z,4.00
2019-03-20T02:26:02.027Z,4.23
2019-03-20T02:28:30.317Z,3.80
2019-03-20T02:30:58.589Z,4.03
2019-03-20T02:33:26.905Z,3.97
2019-03-20T02:35:55.208Z,4.07
2019-03-20T02:38:23.497Z,3.60
2019-03-20T02:40:51.819Z,3.97
2019-03-20T02:43:20.104Z,4.07
2019-03-20T02:45:48.367Z,4.50
2019-03-20T02:48:16.645Z,3.83
2019-03-20T02:50:44.927Z,4.27
2019-03-20T02:53:13.251Z,4.73
2019-03-20T02:55:41.587Z,4.03
2019-03-20T02:58:10.011Z,5.33
2019-03-20T03:00:38.292Z,5.20
2019-03-20T03:03:06.554Z,4.70
2019-03-20T03:05:34.926Z,4.80
2019-03-20T03:08:03.262Z,4.73
2019-03-20T03:10:31.542Z,5.20
2019-03-20T03:12:59.891Z,4.37
2019-03-20T03:15:28.233Z,4.97
2019-03-20T03:17:56.500Z,5.00
2019-03-20T03:20:24.790Z,4.43
2019-03-20T03:22:53.123Z,4.43
2019-03-20T03:25:21.472Z,5.00
2019-03-20T03:27:49.717Z,4.70
2019-03-20T03:30:18.521Z,4.07
2019-03-20T03:32:46.980Z,4.90
2019-03-20T03:35:17.897Z,3.90
2019-03-20T03:37:45.402Z,4.23
2019-03-20T03:40:16.046Z,4.17
2019-03-20T03:42:44.343Z,4.40
2019-03-20T03:45:16.185Z,4.73
2019-03-20T03:47:44.556Z,3.83
2019-03-20T03:50:12.904Z,4.30
2019-03-20T03:52:41.195Z,4.80
2019-03-20T03:55:14.109Z,4.37
2019-03-20T03:57:42.408Z,4.57
2019-03-20T04:00:15.685Z,5.10
2019-03-20T04:02:44.062Z,4.87
2019-03-20T04:05:12.383Z,4.60
2019-03-20T04:07:40.642Z,4.80
2019-03-20T04:10:11.382Z,4.90
2019-03-20T04:12:39.664Z,4.27
2019-03-20T04:15:10.665Z,3.80
2019-03-20T04:17:38.963Z,4.10
2019-03-20T04:20:10.065Z,4.60
2019-03-20T04:22:38.348Z,4.43
2019-03-20T04:25:08.252Z,4.80
2019-03-20T04:27:36.546Z,4.80
2019-03-20T04:30:07.245Z,4.70
2019-03-20T04:32:35.550Z,5.07
2019-03-20T04:35:03.942Z,5.10
2019-03-20T04:37:32.262Z,5.17
2019-03-20T04:40:00.656Z,5.00
2019-03-20T04:42:28.928Z,5.50
2019-03-20T04:44:57.234Z,5.13
2019-03-20T04:47:25.671Z,5.33
2019-03-20T04:49:53.928Z,4.93
2019-03-20T04:52:22.187Z,5.60
2019-03-20T04:54:50.477Z,5.10
2019-03-20T04:57:18.743Z,4.93
2019-03-20T04:59:47.021Z,5.20
2019-03-20T05:02:15.276Z,4.83
2019-03-20T05:04:43.583Z,5.07
2019-03-20T05:07:11.876Z,4.80
2019-03-20T05:09:40.173Z,4.50
2019-03-20T05:12:08.436Z,4.97
2019-03-20T05:14:36.726Z,4.60
2019-03-20T05:17:04.982Z,4.80
2019-03-20T05:19:33.289Z,4.93
2019-03-20T05:22:01.631Z,5.60
2019-03-20T05:24:29.924Z,4.70
2019-03-20T05:26:58.182Z,4.93
2019-03-20T05:29:26.516Z,5.50
2019-03-20T05:31:54.911Z,5.50
2019-03-20T05:34:23.268Z,4.60
2019-03-20T05:36:51.543Z,5.50
2019-03-20T05:39:19.813Z,5.53
2019-03-20T05:41:48.100Z,5.83
2019-03-20T05:44:16.362Z,5.70
2019-03-20T05:46:44.674Z,5.73
2019-03-20T05:49:12.999Z,5.53
2019-03-20T05:51:41.300Z,5.70
2019-03-20T05:54:09.559Z,5.73
2019-03-20T05:56:37.868Z,6.17
2019-03-20T05:59:06.218Z,5.70
2019-03-20T06:01:34.506Z,5.87
2019-03-20T06:04:02.784Z,5.47
2019-03-20T06:06:31.084Z,5.23
2019-03-20T06:08:59.383Z,4.90
2019-03-20T06:11:27.723Z,5.67
2019-03-20T06:13:55.978Z,5.33
2019-03-20T06:16:24.287Z,6.00
2019-03-20T06:18:52.549Z,5.27
2019-03-20T06:21:20.886Z,6.70
2019-03-20T06:23:49.200Z,5.67
2019-03-20T06:26:17.508Z,6.70
2019-03-20T06:28:45.769Z,6.30
2019-03-20T06:31:14.035Z,6.33
2019-03-20T06:33:42.373Z,6.00
2019-03-20T06:36:10.701Z,5.90
2019-03-20T06:38:39.076Z,6.77
2019-03-20T06:41:07.396Z,7.07
2019-03-20T06:43:35.681Z,7.40
2019-03-20T06:46:03.967Z,7.43
2019-03-20T06:48:32.240Z,7.23
2019-03-20T06:51:00.577Z,7.00
2019-03-20T06:53:28.859Z,7.30
2019-03-20T06:55:57.116Z,7.73
2019-03-20T06:58:25.513Z,7.27
2019-03-20T07:01:08.952Z,7.87
2019-03-20T07:03:49.220Z,7.73
2019-03-20T07:06:26.475Z,8.17
2019-03-20T07:09:00.928Z,7.60
2019-03-20T07:11:28.306Z,8.00
2019-03-20T07:13:56.653Z,8.97
2019-03-20T07:16:24.907Z,8.67
2019-03-20T07:18:53.191Z,7.83
2019-03-20T07:21:21.461Z,7.93
2019-03-20T07:23:49.743Z,9.33
2019-03-20T07:26:18.030Z,8.33
2019-03-20T07:28:46.299Z,9.63
2019-03-20T07:31:15.957Z,8.77
2019-03-20T07:33:44.822Z,8.23
2019-03-20T07:36:13.058Z,8.73
2019-03-20T07:38:41.403Z,8.33
2019-03-20T07:41:09.746Z,10.33
2019-03-20T07:43:38.087Z,9.27
2019-03-20T07:46:06.376Z,9.60
2019-03-20T07:48:34.631Z,9.67
2019-03-20T07:51:02.912Z,9.73
2019-03-20T07:53:31.183Z,9.97
2019-03-20T07:55:59.577Z,9.33
2019-03-20T07:58:27.837Z,9.80
2019-03-20T08:00:56.122Z,9.10
2019-03-20T08:03:24.391Z,9.37
2019-03-20T08:05:52.683Z,9.53
2019-03-20T08:08:20.954Z,9.37
2019-03-20T08:10:49.794Z,10.87
2019-03-20T08:13:18.042Z,9.20
2019-03-20T08:15:46.338Z,9.03
2019-03-20T08:18:14.648Z,10.10
2019-03-20T08:20:42.926Z,10.57
2019-03-20T08:23:11.187Z,10.63
2019-03-20T08:25:39.452Z,10.30
2019-03-20T08:28:07.738Z,10.77
2019-03-20T08:30:36.086Z,10.43
2019-03-20T08:33:04.426Z,9.97
2019-03-20T08:35:32.781Z,11.60
2019-03-20T08:38:01.099Z,10.03
2019-03-20T08:40:29.363Z,10.40
2019-03-20T08:42:57.699Z,9.77
2019-03-20T08:45:25.956Z,9.40
2019-03-20T08:47:54.302Z,9.70
2019-03-20T08:50:23.641Z,9.53
2019-03-20T08:52:52.090Z,10.13
2019-03-20T08:55:21.069Z,9.23
2019-03-20T08:57:49.610Z,8.57
2019-03-20T09:00:21.849Z,9.60
2019-03-20T09:02:50.421Z,8.20
2019-03-20T09:05:18.757Z,8.10
2019-03-20T09:07:47.740Z,8.77
2019-03-20T09:10:17.968Z,8.33
2019-03-20T09:12:46.304Z,7.93
2019-03-20T09:15:15.771Z,8.70
2019-03-20T09:17:44.135Z,7.63
2019-03-20T09:20:17.074Z,5.47
2019-03-20T09:22:45.375Z,5.73
2019-03-20T09:25:16.243Z,4.90
2019-03-20T09:27:44.692Z,5.00
2019-03-20T09:30:19.170Z,4.90
2019-03-20T09:32:47.411Z,4.07
2019-03-20T09:35:15.781Z,4.57
2019-03-20T09:37:51.876Z,4.10
2019-03-20T09:40:25.294Z,4.60
2019-03-20T09:42:53.603Z,4.10
2019-03-20T09:45:22.578Z,3.70
2019-03-20T09:47:51.008Z,3.47
2019-03-20T09:50:24.028Z,3.27
2019-03-20T09:52:52.345Z,3.00
2019-03-20T09:55:20.725Z,3.10
2019-03-20T09:57:49.025Z,3.20
2019-03-20T10:00:19.995Z,3.07
2019-03-20T10:02:48.283Z,3.10
2019-03-20T10:05:16.635Z,2.90
2019-03-20T10:07:44.901Z,2.77
2019-03-20T10:10:22.087Z,3.00
2019-03-20T10:12:50.528Z,2.80
2019-03-20T10:15:20.217Z,3.27
2019-03-20T10:17:48.487Z,2.50
2019-03-20T10:20:19.198Z,3.60
2019-03-20T10:22:47.533Z,2.70
2019-03-20T10:25:16.377Z,2.80
2019-03-20T10:27:44.902Z,3.40
2019-03-20T10:30:25.144Z,2.30
2019-03-20T10:32:53.441Z,2.60
2019-03-20T10:35:21.785Z,2.50
2019-03-20T10:37:50.105Z,2.50
2019-03-20T10:40:20.993Z,2.40
2019-03-20T10:42:49.331Z,2.27
2019-03-20T10:45:18.338Z,2.70
2019-03-20T10:47:46.705Z,2.80
2019-03-20T10:50:17.680Z,2.30
2019-03-20T10:52:45.998Z,1.90
2019-03-20T10:55:14.259Z,1.97
2019-03-20T10:57:42.617Z,2.30
2019-03-20T11:00:20.100Z,2.00
2019-03-20T11:02:48.436Z,1.87
2019-03-20T11:05:16.882Z,2.30
2019-03-20T11:07:45.168Z,1.80
2019-03-20T11:10:16.093Z,2.50
2019-03-20T11:12:44.443Z,2.13
2019-03-20T11:15:14.645Z,2.70
2019-03-20T11:17:42.938Z,2.60
2019-03-20T11:20:17.827Z,1.90
2019-03-20T11:22:46.224Z,2.20
2019-03-20T11:25:22.220Z,1.95
2019-03-20T11:27:50.526Z,2.10
2019-03-20T11:30:28.729Z,2.27
2019-03-20T11:32:57.091Z,1.82
2019-03-20T11:35:25.378Z,1.70
2019-03-20T11:37:53.659Z,2.15
2019-03-20T11:40:31.028Z,2.08
2019-03-20T11:42:59.377Z,1.80
2019-03-20T11:45:27.651Z,1.80
2019-03-20T11:47:55.932Z,1.50
2019-03-20T11:50:36.016Z,1.82
2019-03-20T11:53:05.227Z,2.20
2019-03-20T11:55:33.771Z,1.70
2019-03-20T11:58:02.124Z,2.17
2019-03-20T12:00:30.750Z,2.20
2019-03-20T12:02:59.099Z,2.10
2019-03-20T12:05:27.476Z,2.37
2019-03-20T12:07:55.762Z,1.90
2019-03-20T12:10:30.881Z,1.50
2019-03-20T12:12:59.163Z,1.30
2019-03-20T12:15:27.475Z,1.30
2019-03-20T12:17:55.821Z,1.13
2019-03-20T12:20:24.678Z,1.20
2019-03-20T12:22:53.077Z,1.30
2019-03-20T12:25:29.663Z,1.30
2019-03-20T12:27:57.990Z,1.40
2019-03-20T12:30:27.936Z,1.15
2019-03-20T12:32:56.266Z,1.20
2019-03-20T12:35:26.399Z,1.30
2019-03-20T12:37:54.695Z,1.27
2019-03-20T12:40:30.794Z,1.60
2019-03-20T12:42:59.142Z,1.50
2019-03-20T12:45:32.170Z,1.45
2019-03-20T12:48:00.452Z,1.40
2019-03-20T12:50:28.883Z,1.27
2019-03-20T12:52:57.368Z,1.60
2019-03-20T12:55:25.693Z,1.55
2019-03-20T12:57:53.953Z,1.27
2019-03-20T13:00:27.453Z,1.40
2019-03-20T13:02:55.999Z,1.70
2019-03-20T13:05:24.320Z,1.27
2019-03-20T13:07:52.593Z,1.40
2019-03-20T13:10:25.850Z,1.40
2019-03-20T13:12:54.217Z,1.50
2019-03-20T13:15:23.396Z,1.95
2019-03-20T13:17:52.099Z,1.50
2019-03-20T13:20:20.536Z,1.70
2019-03-20T13:22:57.542Z,1.85
2019-03-20T13:25:25.894Z,2.42
2019-03-20T13:27:54.221Z,1.82
2019-03-20T13:30:28.237Z,1.50
2019-03-20T13:32:56.601Z,1.70
2019-03-20T13:35:24.892Z,1.80
2019-03-20T13:37:53.242Z,1.80
2019-03-20T13:40:21.517Z,2.07
2019-03-20T13:42:49.799Z,2.10
2019-03-20T13:45:21.315Z,1.80
2019-03-20T13:47:49.607Z,1.90
2019-03-20T13:50:17.881Z,1.93
2019-03-20T13:52:46.257Z,2.30
2019-03-20T13:55:15.587Z,2.70
2019-03-20T13:57:44.005Z,1.90
2019-03-20T14:00:21.674Z,2.00
2019-03-20T14:02:49.965Z,2.10
2019-03-20T14:05:18.243Z,2.60
2019-03-20T14:07:46.532Z,2.43
2019-03-20T14:10:25.569Z,4.67
2019-03-20T14:12:51.826Z,2.50
2019-03-20T14:15:20.244Z,1.80
2019-03-20T14:17:48.620Z,2.00
2019-03-20T14:20:27.316Z,1.57
2019-03-20T14:22:55.598Z,1.70
2019-03-20T14:25:23.949Z,1.40
2019-03-20T14:27:52.732Z,1.90
2019-03-20T14:30:25.342Z,1.60
2019-03-20T14:32:53.701Z,1.63
2019-03-20T14:35:22.027Z,1.60
2019-03-20T14:37:50.354Z,1.70
2019-03-20T14:40:20.959Z,1.80
2019-03-20T14:42:49.228Z,1.90
2019-03-20T14:45:17.589Z,2.10
2019-03-20T14:47:45.922Z,2.00
2019-03-20T14:50:16.700Z,1.53
2019-03-20T14:52:44.983Z,2.37
2019-03-20T14:55:14.231Z,1.90
2019-03-20T14:57:42.559Z,1.80
2019-03-20T15:00:21.329Z,1.90
2019-03-20T15:02:49.590Z,2.00
2019-03-20T15:05:17.891Z,1.70
2019-03-20T15:07:46.148Z,2.20
2019-03-20T15:10:25.377Z,2.10
2019-03-20T15:12:54.081Z,2.20
2019-03-20T15:15:33.944Z,2.17
2019-03-20T15:18:02.281Z,2.03
2019-03-20T15:20:30.612Z,2.10
2019-03-20T15:22:58.951Z,2.50
2019-03-20T15:25:27.422Z,2.17
2019-03-20T15:27:55.754Z,2.77
2019-03-20T15:30:25.125Z,2.40
2019-03-20T15:32:53.397Z,2.03
2019-03-20T15:35:21.777Z,2.43
2019-03-20T15:37:50.175Z,2.45
2019-03-20T15:40:28.428Z,2.20
2019-03-20T15:42:56.722Z,2.30
2019-03-20T15:45:25.102Z,2.47
2019-03-20T15:47:53.553Z,2.62
2019-03-20T15:50:26.979Z,3.02
2019-03-20T15:52:55.308Z,3.45
2019-03-20T15:55:36.955Z,3.30
2019-03-20T15:58:05.242Z,3.17
2019-03-20T16:00:33.518Z,3.00
2019-03-20T16:03:34.982Z,3.12
2019-03-20T16:06:03.390Z,3.33
2019-03-20T16:08:31.753Z,3.40
2019-03-20T16:11:06.528Z,3.23
2019-03-20T16:13:30.111Z,3.30
2019-03-20T16:15:58.423Z,3.27
2019-03-20T16:18:26.727Z,3.23
2019-03-20T16:20:55.028Z,3.13
2019-03-20T16:23:23.307Z,2.97
2019-03-20T16:25:51.577Z,2.73
2019-03-20T16:28:19.949Z,2.80
2019-03-20T16:30:48.261Z,3.07
2019-03-20T16:33:16.599Z,3.03
2019-03-20T16:35:44.927Z,2.87
2019-03-20T16:38:14.539Z,2.93
2019-03-20T16:40:42.940Z,2.83
2019-03-20T16:43:11.324Z,2.80
2019-03-20T16:45:39.686Z,3.10
2019-03-20T16:48:08.083Z,2.83
2019-03-20T16:50:36.399Z,3.00
2019-03-20T16:53:04.675Z,2.90
2019-03-20T16:55:32.970Z,2.80
2019-03-20T16:58:01.256Z,2.97
2019-03-20T17:00:33.275Z,2.63
2019-03-20T17:03:01.606Z,2.73
2019-03-20T17:05:30.685Z,3.43
2019-03-20T17:07:58.979Z,2.70
2019-03-20T17:10:38.887Z,3.10
2019-03-20T17:13:07.233Z,3.20
2019-03-20T17:15:36.600Z,2.63
2019-03-20T17:18:05.505Z,2.60
2019-03-20T17:20:33.787Z,2.43
2019-03-20T17:23:02.136Z,2.27
2019-03-20T17:25:30.495Z,2.53
2019-03-20T17:27:58.846Z,2.20
2019-03-20T17:30:29.299Z,2.20
2019-03-20T17:32:57.620Z,2.20
2019-03-20T17:35:25.916Z,2.30
2019-03-20T17:37:54.248Z,2.57
2019-03-20T17:40:27.656Z,3.10
2019-03-20T17:42:55.982Z,2.43
2019-03-20T17:45:25.669Z,2.00
2019-03-20T17:47:53.968Z,1.90
2019-03-20T17:50:30.792Z,2.07
2019-03-20T17:52:59.084Z,2.13
2019-03-20T17:55:27.510Z,1.73
2019-03-20T17:57:55.844Z,1.80
2019-03-20T18:00:36.439Z,1.80
2019-03-20T18:03:05.511Z,1.83
2019-03-20T18:05:33.851Z,2.20
2019-03-20T18:08:02.157Z,2.40
2019-03-20T18:10:30.502Z,1.87
2019-03-20T18:12:58.792Z,2.03
2019-03-20T18:15:27.077Z,2.17
2019-03-20T18:17:55.450Z,2.23
2019-03-20T18:20:23.801Z,2.17
2019-03-20T18:22:52.156Z,2.37
2019-03-20T18:25:20.455Z,1.90
2019-03-20T18:27:48.781Z,1.77
2019-03-20T18:30:24.152Z,1.50
2019-03-20T18:32:52.458Z,1.80
2019-03-20T18:35:20.774Z,2.00
2019-03-20T18:37:49.162Z,2.00
2019-03-20T18:40:22.486Z,2.10
2019-03-20T18:42:50.862Z,2.37
2019-03-20T18:45:22.485Z,2.33
2019-03-20T18:47:50.865Z,2.50
2019-03-20T18:50:22.551Z,2.37
2019-03-20T18:52:51.134Z,2.70
2019-03-20T18:55:19.811Z,3.07
2019-03-20T18:57:48.455Z,2.97
2019-03-20T19:00:25.844Z,4.17
2019-03-20T19:02:56.831Z,4.60
2019-03-20T19:05:28.440Z,4.47
2019-03-20T19:07:56.712Z,3.73
2019-03-20T19:10:25.399Z,3.10
2019-03-20T19:12:53.988Z,3.10
2019-03-20T19:15:22.342Z,2.90
2019-03-20T19:17:50.663Z,2.93
2019-03-20T19:20:19.956Z,2.90
2019-03-20T19:22:48.422Z,2.53
2019-03-20T19:25:17.502Z,2.93
2019-03-20T19:27:45.890Z,3.07
2019-03-20T19:30:25.311Z,3.20
2019-03-20T19:32:53.593Z,4.00
2019-03-20T19:35:21.970Z,4.60
2019-03-20T19:37:50.247Z,4.60
2019-03-20T19:40:19.821Z,3.23
2019-03-20T19:42:48.200Z,3.43
2019-03-20T19:45:17.134Z,2.67
2019-03-20T19:47:45.635Z,3.07
2019-03-20T19:50:22.218Z,3.13
2019-03-20T19:52:50.553Z,3.70
2019-03-20T19:55:18.927Z,4.97
2019-03-20T19:57:47.376Z,4.10
2019-03-20T20:00:16.941Z,4.47
2019-03-20T20:02:46.278Z,6.40
2019-03-20T20:05:16.033Z,4.10
2019-03-20T20:07:44.681Z,3.60
2019-03-20T20:10:17.982Z,4.07
2019-03-20T20:12:46.412Z,6.33
2019-03-20T20:15:28.569Z,6.23
2019-03-20T20:17:56.932Z,3.37
2019-03-20T20:20:30.491Z,3.57
2019-03-20T20:22:58.851Z,3.50
2019-03-20T20:25:27.202Z,3.43
2019-03-20T20:27:55.505Z,5.07
2019-03-20T20:30:23.869Z,5.27
2019-03-20T20:32:52.290Z,5.00
2019-03-20T20:35:20.595Z,4.40
2019-03-20T20:37:50.038Z,4.40
2019-03-20T20:40:20.635Z,5.17
2019-03-20T20:42:48.981Z,5.00
2019-03-20T20:45:17.433Z,4.57
2019-03-20T20:47:45.767Z,5.00
2019-03-20T20:50:17.691Z,5.97
2019-03-20T20:52:46.292Z,5.23
2019-03-20T20:55:15.717Z,5.57
2019-03-20T20:57:44.050Z,4.33
2019-03-20T21:00:15.632Z,4.13
2019-03-20T21:02:43.985Z,4.90
2019-03-20T21:05:12.329Z,4.60
2019-03-20T21:07:40.732Z,5.27
2019-03-20T21:10:23.161Z,4.90
2019-03-20T21:12:56.674Z,6.13
2019-03-20T21:15:35.905Z,6.43
2019-03-20T21:18:16.518Z,5.87
2019-03-20T21:20:45.710Z,6.03
2019-03-20T21:23:33.710Z,5.90
2019-03-20T21:26:02.431Z,5.30
2019-03-20T21:28:53.147Z,5.00
2019-03-20T21:31:27.346Z,9.83
2019-03-20T21:34:31.811Z,9.73
2019-03-20T21:37:19.626Z,7.70
2019-03-20T21:39:47.971Z,6.60
2019-03-20T21:42:46.432Z,6.93
2019-03-20T21:45:32.873Z,7.53
2019-03-20T21:48:01.164Z,7.93
2019-03-20T21:50:50.502Z,7.20
2019-03-20T21:53:38.499Z,8.50
2019-03-20T21:56:27.711Z,8.00
2019-03-20T21:59:15.601Z,9.57
2019-03-20T22:02:21.439Z,11.07
2019-03-20T22:04:49.840Z,5.43
2019-03-20T22:07:18.156Z,6.53
2019-03-20T22:09:55.499Z,9.77
2019-03-20T22:12:29.845Z,9.27
2019-03-20T22:15:07.261Z,8.70
2019-03-20T22:17:51.163Z,8.30
2019-03-20T22:20:25.785Z,7.70
2019-03-20T22:23:18.279Z,8.33
2019-03-20T22:26:07.829Z,6.27
2019-03-20T22:29:03.327Z,5.00
2019-03-20T22:31:40.729Z,4.43
2019-03-20T22:34:36.230Z,5.27
2019-03-20T22:37:04.594Z,5.47
2019-03-20T22:40:09.094Z,5.17
2019-03-20T22:42:49.450Z,5.47
2019-03-20T22:45:53.729Z,5.30
2019-03-20T22:48:41.500Z,4.97
2019-03-20T22:51:33.264Z,4.70
2019-03-20T22:54:24.272Z,7.20
2019-03-20T22:56:58.754Z,6.67
2019-03-20T22:59:27.091Z,6.87
2019-03-20T23:02:07.499Z,8.17
2019-03-20T23:04:38.946Z,7.97
2019-03-20T23:07:07.307Z,6.63
2019-03-20T23:09:36.887Z,7.37
2019-03-20T23:12:07.920Z,5.67
2019-03-20T23:14:36.254Z,5.90
2019-03-20T23:17:04.661Z,7.70
2019-03-20T23:19:33.027Z,7.93
2019-03-20T23:22:01.303Z,7.43
2019-03-20T23:24:29.675Z,5.93
2019-03-20T23:26:59.653Z,5.47
2019-03-20T23:29:27.931Z,5.53
2019-03-20T23:31:56.194Z,5.40
2019-03-20T23:34:24.508Z,5.80
2019-03-20T23:36:52.794Z,6.50
2019-03-20T23:39:21.150Z,8.37
2019-03-20T23:41:49.468Z,5.90
2019-03-20T23:44:17.770Z,5.93
2019-03-20T23:46:46.014Z,6.20
2019-03-20T23:49:17.672Z,5.50
2019-03-20T23:51:45.984Z,6.10
2019-03-20T23:54:16.118Z,6.03
2019-03-20T23:56:44.450Z,5.90
2019-03-20T23:59:12.751Z,5.77
